createdAt,value
2024-02-26T00:00:32.325Z,2.23
2024-02-26T00:02:59.792Z,2.30
2024-02-26T00:05:27.069Z,2.80
2024-02-26T00:07:54.445Z,2.30
2024-02-26T00:10:21.645Z,2.50
2024-02-26T00:12:49.608Z,2.10
2024-02-26T00:15:16.878Z,2.40
2024-02-26T00:17:44.111Z,2.20
2024-02-26T00:20:12.562Z,2.27
2024-02-26T00:22:39.853Z,2.40
2024-02-26T00:25:07.586Z,2.43
2024-02-26T00:27:34.792Z,2.30
2024-02-26T00:30:02.221Z,2.60
2024-02-26T00:32:29.646Z,2.60
2024-02-26T00:34:56.841Z,2.40
2024-02-26T00:37:44.470Z,2.70
2024-02-26T00:40:11.965Z,2.50
2024-02-26T00:42:39.134Z,2.90
2024-02-26T00:45:07.748Z,2.80
2024-02-26T00:47:35.083Z,2.70
2024-02-26T00:50:02.164Z,2.47
2024-02-26T00:52:29.561Z,2.57
2024-02-26T00:54:56.727Z,2.97
2024-02-26T00:57:23.851Z,2.70
2024-02-26T00:59:52.020Z,2.67
2024-02-26T01:02:19.720Z,2.87
2024-02-26T01:04:46.831Z,2.90
2024-02-26T01:07:14.202Z,2.90
2024-02-26T01:09:41.483Z,2.40
2024-02-26T01:12:08.764Z,2.53
2024-02-26T01:14:36.080Z,2.70
2024-02-26T01:17:04.033Z,2.90
2024-02-26T01:19:31.189Z,2.60
2024-02-26T01:21:58.528Z,2.40
2024-02-26T01:24:25.855Z,2.50
2024-02-26T01:26:53.034Z,2.57
2024-02-26T01:29:20.298Z,2.70
2024-02-26T01:31:47.658Z,2.70
2024-02-26T01:34:15.824Z,2.70
2024-02-26T01:36:43.155Z,2.80
2024-02-26T01:39:13.785Z,2.40
2024-02-26T01:41:42.078Z,2.73
2024-02-26T01:44:09.329Z,2.77
2024-02-26T01:46:38.020Z,2.50
2024-02-26T01:49:05.968Z,2.40
2024-02-26T01:51:34.798Z,2.63
2024-02-26T01:54:05.009Z,2.73
2024-02-26T01:56:33.619Z,2.40
2024-02-26T01:59:01.205Z,2.90
2024-02-26T02:01:32.489Z,3.07
2024-02-26T02:04:01.404Z,3.47
2024-02-26T02:06:29.400Z,3.70
2024-02-26T02:08:56.791Z,3.37
2024-02-26T02:11:42.940Z,3.43
2024-02-26T02:14:10.349Z,3.53
2024-02-26T02:16:37.616Z,3.87
2024-02-26T02:19:04.918Z,4.20
2024-02-26T02:21:31.980Z,3.37
2024-02-26T02:23:59.389Z,3.33
2024-02-26T02:26:26.763Z,3.47
2024-02-26T02:28:54.969Z,3.90
2024-02-26T02:31:22.150Z,3.90
2024-02-26T02:33:50.285Z,3.20
2024-02-26T02:36:17.703Z,3.30
2024-02-26T02:38:52.693Z,3.27
2024-02-26T02:41:20.541Z,3.10
2024-02-26T02:43:47.749Z,3.00
2024-02-26T02:46:15.049Z,2.40
2024-02-26T02:48:44.050Z,2.63
2024-02-26T02:51:11.934Z,2.80
2024-02-26T02:53:39.411Z,2.70
2024-02-26T02:56:07.070Z,2.57
2024-02-26T02:58:34.158Z,2.60
2024-02-26T03:01:02.252Z,2.50
2024-02-26T03:03:30.524Z,2.60
2024-02-26T03:05:57.866Z,2.40
2024-02-26T03:08:26.963Z,2.50
2024-02-26T03:10:54.469Z,2.40
2024-02-26T03:13:21.908Z,2.67
2024-02-26T03:15:49.465Z,2.37
2024-02-26T03:18:16.886Z,2.80
2024-02-26T03:20:44.065Z,2.97
2024-02-26T03:23:14.005Z,3.37
2024-02-26T03:25:42.441Z,3.50
2024-02-26T03:28:09.594Z,4.00
2024-02-26T03:30:36.832Z,3.63
2024-02-26T03:33:04.348Z,3.50
2024-02-26T03:35:31.560Z,3.70
2024-02-26T03:37:58.981Z,3.30
2024-02-26T03:40:26.255Z,3.80
2024-02-26T03:42:55.201Z,3.47
2024-02-26T03:45:22.658Z,3.37
2024-02-26T03:47:50.063Z,3.60
2024-02-26T03:50:17.766Z,3.27
2024-02-26T03:52:44.969Z,3.23
2024-02-26T03:55:12.118Z,3.10
2024-02-26T03:57:39.401Z,3.27
2024-02-26T04:00:07.819Z,3.33
2024-02-26T04:02:34.976Z,3.33
2024-02-26T04:05:39.712Z,3.20
2024-02-26T04:08:08.651Z,3.10
2024-02-26T04:10:41.826Z,3.10
2024-02-26T04:13:09.918Z,3.03
2024-02-26T04:15:37.120Z,3.20
2024-02-26T04:18:04.738Z,3.30
2024-02-26T04:20:31.975Z,2.90
2024-02-26T04:22:59.130Z,3.30
2024-02-26T04:25:26.201Z,2.97
2024-02-26T04:27:53.284Z,3.00
2024-02-26T04:30:21.323Z,3.60
2024-02-26T04:32:49.718Z,3.30
2024-02-26T04:35:16.958Z,3.40
2024-02-26T04:37:44.125Z,3.10
2024-02-26T04:40:11.817Z,3.20
2024-02-26T04:42:39.003Z,2.93
2024-02-26T04:45:08.266Z,3.00
2024-02-26T04:47:35.784Z,3.07
2024-02-26T04:50:04.674Z,3.30
2024-02-26T04:52:31.925Z,2.73
2024-02-26T04:55:01.265Z,3.20
2024-02-26T04:57:28.540Z,2.90
2024-02-26T04:59:55.789Z,2.87
2024-02-26T05:02:23.102Z,2.97
2024-02-26T05:04:50.256Z,2.70
2024-02-26T05:07:19.004Z,2.87
2024-02-26T05:09:46.527Z,2.97
2024-02-26T05:12:13.820Z,2.67
2024-02-26T05:14:41.378Z,3.10
2024-02-26T05:17:09.816Z,3.23
2024-02-26T05:19:37.894Z,3.07
2024-02-26T05:22:05.002Z,2.80
2024-02-26T05:24:32.384Z,3.10
2024-02-26T05:27:01.395Z,3.30
2024-02-26T05:29:28.668Z,3.50
2024-02-26T05:31:55.706Z,2.80
2024-02-26T05:34:23.612Z,2.80
2024-02-26T05:36:50.819Z,2.70
2024-02-26T05:39:20.782Z,2.90
2024-02-26T05:41:48.472Z,2.80
2024-02-26T05:44:16.019Z,2.80
2024-02-26T05:46:43.450Z,3.27
2024-02-26T05:49:10.754Z,2.93
2024-02-26T05:51:38.034Z,2.77
2024-02-26T05:54:05.139Z,2.80
2024-02-26T05:56:32.438Z,2.90
2024-02-26T05:58:59.687Z,2.67
2024-02-26T06:01:27.572Z,2.63
2024-02-26T06:03:54.939Z,3.10
2024-02-26T06:06:27.683Z,3.10
2024-02-26T06:08:55.241Z,2.50
2024-02-26T06:11:24.125Z,2.63
2024-02-26T06:13:52.726Z,2.93
2024-02-26T06:16:22.335Z,2.80
2024-02-26T06:18:49.856Z,2.80
2024-02-26T06:21:17.423Z,2.70
2024-02-26T06:23:44.812Z,2.70
2024-02-26T06:26:12.400Z,2.80
2024-02-26T06:28:42.283Z,2.60
2024-02-26T06:31:09.959Z,2.70
2024-02-26T06:33:37.702Z,3.20
2024-02-26T06:36:06.066Z,2.67
2024-02-26T06:38:33.478Z,3.10
2024-02-26T06:41:04.809Z,2.80
2024-02-26T06:43:32.284Z,2.93
2024-02-26T06:45:59.605Z,3.00
2024-02-26T06:48:26.801Z,2.90
2024-02-26T06:50:54.055Z,2.93
2024-02-26T06:53:21.150Z,2.73
2024-02-26T06:55:48.329Z,3.37
2024-02-26T06:58:15.581Z,2.60
2024-02-26T07:00:42.974Z,2.97
2024-02-26T07:03:10.159Z,3.07
2024-02-26T07:05:38.920Z,3.00
2024-02-26T07:08:08.406Z,2.97
2024-02-26T07:10:35.673Z,3.23
2024-02-26T07:13:02.943Z,3.00
2024-02-26T07:15:50.855Z,3.27
2024-02-26T07:18:18.099Z,3.20
2024-02-26T07:20:45.374Z,3.20
2024-02-26T07:23:14.003Z,3.07
2024-02-26T07:25:43.108Z,2.87
2024-02-26T07:28:11.158Z,3.27
2024-02-26T07:30:38.385Z,3.10
2024-02-26T07:33:05.966Z,2.93
2024-02-26T07:35:34.700Z,3.37
2024-02-26T07:38:02.319Z,3.17
2024-02-26T07:40:42.650Z,3.20
2024-02-26T07:43:14.759Z,3.20
2024-02-26T07:45:44.805Z,3.27
2024-02-26T07:48:13.915Z,2.90
2024-02-26T07:50:42.072Z,2.80
2024-02-26T07:53:09.179Z,2.80
2024-02-26T07:55:36.425Z,2.87
2024-02-26T07:58:04.951Z,3.07
2024-02-26T08:00:33.030Z,3.20
2024-02-26T08:03:00.388Z,3.20
2024-02-26T08:05:27.680Z,3.10
2024-02-26T08:07:56.149Z,2.73
2024-02-26T08:10:23.397Z,2.77
2024-02-26T08:12:51.425Z,2.70
2024-02-26T08:15:20.435Z,3.13
2024-02-26T08:17:52.229Z,3.10
2024-02-26T08:20:33.789Z,2.80
2024-02-26T08:23:07.181Z,2.73
2024-02-26T08:25:34.385Z,2.53
2024-02-26T08:28:01.943Z,2.67
2024-02-26T08:30:29.380Z,2.80
2024-02-26T08:32:56.873Z,2.87
2024-02-26T08:35:24.274Z,2.83
2024-02-26T08:37:51.766Z,2.47
2024-02-26T08:40:20.877Z,2.83
2024-02-26T08:42:48.234Z,2.90
2024-02-26T08:45:15.558Z,2.60
2024-02-26T08:47:43.037Z,2.43
2024-02-26T08:50:11.567Z,2.80
2024-02-26T08:52:39.118Z,2.73
2024-02-26T08:55:07.437Z,2.87
2024-02-26T08:57:35.313Z,2.40
2024-02-26T09:00:03.257Z,2.97
2024-02-26T09:02:30.553Z,2.70
2024-02-26T09:04:58.364Z,2.60
2024-02-26T09:07:25.535Z,2.60
2024-02-26T09:09:53.040Z,2.50
2024-02-26T09:12:21.128Z,2.77
2024-02-26T09:14:48.475Z,2.50
2024-02-26T09:17:15.771Z,2.50
2024-02-26T09:19:44.367Z,2.83
2024-02-26T09:22:13.479Z,2.50
2024-02-26T09:24:42.136Z,2.53
2024-02-26T09:27:09.244Z,2.70
2024-02-26T09:29:37.704Z,2.90
2024-02-26T09:32:05.369Z,2.77
2024-02-26T09:34:33.121Z,2.40
2024-02-26T09:37:08.197Z,2.30
2024-02-26T09:39:40.199Z,2.80
2024-02-26T09:42:11.254Z,2.60
2024-02-26T09:44:43.269Z,2.50
2024-02-26T09:47:18.392Z,2.50
2024-02-26T09:49:48.988Z,3.00
2024-02-26T09:52:18.238Z,2.47
2024-02-26T09:54:49.139Z,2.60
2024-02-26T09:57:18.502Z,2.73
2024-02-26T09:59:49.876Z,2.73
2024-02-26T10:02:19.348Z,2.40
2024-02-26T10:04:52.458Z,2.90
2024-02-26T10:07:20.921Z,2.60
2024-02-26T10:09:48.342Z,2.63
2024-02-26T10:12:18.624Z,2.53
2024-02-26T10:14:46.195Z,2.70
2024-02-26T10:17:51.137Z,2.53
2024-02-26T10:20:20.430Z,2.70
2024-02-26T10:22:47.997Z,2.60
2024-02-26T10:25:15.967Z,2.60
2024-02-26T10:28:22.459Z,2.90
2024-02-26T10:30:49.722Z,2.70
2024-02-26T10:33:17.313Z,2.80
2024-02-26T10:35:49.384Z,2.50
2024-02-26T10:38:21.758Z,2.87
2024-02-26T10:40:51.394Z,2.70
2024-02-26T10:43:19.693Z,2.60
2024-02-26T10:45:48.750Z,2.40
2024-02-26T10:48:18.195Z,2.63
2024-02-26T10:50:47.235Z,2.50
2024-02-26T10:53:22.535Z,2.90
2024-02-26T10:56:12.984Z,2.90
2024-02-26T10:58:41.013Z,2.70
2024-02-26T11:01:09.652Z,2.67
2024-02-26T11:03:38.739Z,2.70
2024-02-26T11:06:07.040Z,2.90
2024-02-26T11:08:35.181Z,3.30
2024-02-26T11:11:02.588Z,2.87
2024-02-26T11:13:34.659Z,3.17
2024-02-26T11:16:11.272Z,2.77
2024-02-26T11:18:43.278Z,2.60
2024-02-26T11:21:14.338Z,3.00
2024-02-26T11:23:42.000Z,2.90
2024-02-26T11:26:33.014Z,3.17
2024-02-26T11:29:00.652Z,2.90
2024-02-26T11:31:28.955Z,3.20
2024-02-26T11:33:58.507Z,3.37
2024-02-26T11:36:26.416Z,3.33
2024-02-26T11:39:16.344Z,4.10
2024-02-26T11:46:01.354Z,4.40
2024-02-26T11:48:30.758Z,4.80
2024-02-26T11:51:43.802Z,4.40
2024-02-26T11:54:11.125Z,4.67
2024-02-26T11:56:42.460Z,5.00
2024-02-26T11:59:14.322Z,5.30
2024-02-26T12:02:03.106Z,4.57
2024-02-26T12:04:32.401Z,5.73
2024-02-26T12:07:03.579Z,5.57
2024-02-26T12:09:44.203Z,4.90
2024-02-26T12:12:19.079Z,5.37
2024-02-26T12:14:58.347Z,5.40
2024-02-26T12:17:27.259Z,5.60
2024-02-26T12:19:55.391Z,5.30
2024-02-26T12:22:22.842Z,6.67
2024-02-26T12:25:49.335Z,8.73
2024-02-26T12:28:16.765Z,5.97
2024-02-26T12:30:47.196Z,5.77
2024-02-26T12:33:14.836Z,5.90
2024-02-26T12:35:42.111Z,5.20
2024-02-26T12:38:09.771Z,5.53
2024-02-26T12:40:37.161Z,5.93
2024-02-26T12:43:05.114Z,5.67
2024-02-26T12:45:33.293Z,5.40
2024-02-26T12:48:01.034Z,5.47
2024-02-26T12:50:28.601Z,6.10
2024-02-26T12:52:56.083Z,6.37
2024-02-26T12:55:23.925Z,6.20
2024-02-26T12:57:53.248Z,5.70
2024-02-26T13:00:27.827Z,6.63
2024-02-26T13:02:57.037Z,6.10
2024-02-26T13:05:26.201Z,6.87
2024-02-26T13:07:56.125Z,8.13
2024-02-26T13:10:23.417Z,6.60
2024-02-26T13:12:54.736Z,6.73
2024-02-26T13:15:30.661Z,6.13
2024-02-26T13:18:10.225Z,5.87
2024-02-26T13:20:43.980Z,6.13
2024-02-26T13:23:14.717Z,6.10
2024-02-26T13:25:45.186Z,5.47
2024-02-26T13:28:20.764Z,5.90
2024-02-26T13:31:00.534Z,5.77
2024-02-26T13:33:30.606Z,6.17
2024-02-26T13:35:59.769Z,6.10
2024-02-26T13:38:28.582Z,6.37
2024-02-26T13:40:56.355Z,6.13
2024-02-26T13:43:23.465Z,6.37
2024-02-26T13:45:51.607Z,5.97
2024-02-26T13:48:19.063Z,6.50
2024-02-26T13:50:49.718Z,6.13
2024-02-26T13:53:17.315Z,6.50
2024-02-26T13:55:47.250Z,5.90
2024-02-26T13:58:16.023Z,5.53
2024-02-26T14:00:44.240Z,5.67
2024-02-26T14:03:12.420Z,5.23
2024-02-26T14:05:39.764Z,5.60
2024-02-26T14:08:07.790Z,5.70
2024-02-26T14:10:35.182Z,5.57
2024-02-26T14:24:09.339Z,5.53
2024-02-26T14:27:11.751Z,6.03
2024-02-26T14:42:58.785Z,6.73
2024-02-26T14:45:25.942Z,6.97
2024-02-26T14:47:55.305Z,7.27
2024-02-26T14:50:22.417Z,7.43
2024-02-26T14:52:49.509Z,7.80
2024-02-26T14:55:16.906Z,7.50
2024-02-26T14:58:12.442Z,8.23
2024-02-26T15:00:42.737Z,7.70
2024-02-26T15:03:10.310Z,8.20
2024-02-26T15:05:38.390Z,8.70
2024-02-26T15:08:06.926Z,8.20
2024-02-26T15:10:34.135Z,7.90
2024-02-26T15:13:01.351Z,8.07
2024-02-26T15:15:28.636Z,7.73
2024-02-26T15:17:56.003Z,7.93
2024-02-26T15:20:25.984Z,7.73
2024-02-26T15:22:55.693Z,7.90
2024-02-26T15:25:23.001Z,7.53
2024-02-26T15:27:50.183Z,7.40
2024-02-26T15:30:17.505Z,7.80
2024-02-26T15:32:47.945Z,8.30
2024-02-26T15:35:15.520Z,8.23
2024-02-26T15:37:43.183Z,7.87
2024-02-26T15:40:12.265Z,8.10
2024-02-26T15:42:40.328Z,8.03
2024-02-26T15:45:08.192Z,7.83
2024-02-26T15:47:36.568Z,8.17
2024-02-26T15:50:05.059Z,7.53
2024-02-26T15:52:32.399Z,7.53
2024-02-26T15:54:59.614Z,7.90
2024-02-26T15:57:26.937Z,7.67
2024-02-26T15:59:55.206Z,7.27
2024-02-26T16:02:22.579Z,7.40
2024-02-26T16:04:50.727Z,7.70
2024-02-26T16:07:32.444Z,7.77
2024-02-26T16:09:59.532Z,8.10
2024-02-26T16:12:45.339Z,7.40
2024-02-26T16:15:12.512Z,8.10
2024-02-26T16:17:52.610Z,7.80
2024-02-26T16:20:22.298Z,7.70
2024-02-26T16:22:50.168Z,7.40
2024-02-26T16:25:20.653Z,8.13
2024-02-26T16:27:48.324Z,7.70
2024-02-26T16:30:15.769Z,7.70
2024-02-26T16:32:44.321Z,7.83
2024-02-26T16:35:15.399Z,7.97
2024-02-26T16:37:42.870Z,7.37
2024-02-26T16:40:10.588Z,6.73
2024-02-26T16:42:38.742Z,7.30
2024-02-26T16:45:06.529Z,7.63
2024-02-26T16:47:36.078Z,7.60
2024-02-26T16:50:06.159Z,7.10
2024-02-26T16:52:34.467Z,7.53
2024-02-26T16:55:05.295Z,7.90
2024-02-26T16:57:35.380Z,7.40
2024-02-26T17:00:02.747Z,6.93
2024-02-26T17:02:30.036Z,6.93
2024-02-26T17:04:57.439Z,6.77
2024-02-26T17:07:26.253Z,7.90
2024-02-26T17:09:54.002Z,7.50
2024-02-26T17:12:23.461Z,7.17
2024-02-26T17:14:52.287Z,7.10
2024-02-26T17:17:20.074Z,7.73
2024-02-26T17:19:47.308Z,6.90
2024-02-26T17:22:14.664Z,7.57
2024-02-26T17:24:42.202Z,7.27
2024-02-26T17:27:09.510Z,7.90
2024-02-26T17:29:38.204Z,7.87
2024-02-26T17:32:09.744Z,7.90
2024-02-26T17:34:39.660Z,8.07
2024-02-26T17:37:07.027Z,7.30
2024-02-26T17:39:34.300Z,7.90
2024-02-26T17:42:04.579Z,7.70
2024-02-26T17:44:39.211Z,7.63
2024-02-26T17:47:07.877Z,7.83
2024-02-26T17:49:35.855Z,7.80
2024-02-26T17:52:03.428Z,7.47
2024-02-26T17:54:30.861Z,8.23
2024-02-26T17:56:58.886Z,8.10
2024-02-26T17:59:26.190Z,7.50
2024-02-26T18:01:53.579Z,7.40
2024-02-26T18:04:20.739Z,7.83
2024-02-26T18:06:48.508Z,7.60
2024-02-26T18:09:15.991Z,8.20
2024-02-26T18:11:47.457Z,8.37
2024-02-26T18:14:14.903Z,8.17
2024-02-26T18:16:42.031Z,8.00
2024-02-26T18:19:09.426Z,8.30
2024-02-26T18:21:36.972Z,7.90
2024-02-26T18:24:04.620Z,8.10
2024-02-26T18:26:31.918Z,8.10
2024-02-26T18:29:03.710Z,8.33
2024-02-26T18:31:30.964Z,8.40
2024-02-26T18:33:58.502Z,9.10
2024-02-26T18:36:26.296Z,8.43
2024-02-26T18:38:54.020Z,9.20
2024-02-26T18:41:23.393Z,8.57
2024-02-26T18:43:53.628Z,8.47
2024-02-26T18:46:20.917Z,8.83
2024-02-26T18:48:49.589Z,8.50
2024-02-26T18:51:17.074Z,8.53
2024-02-26T18:53:44.242Z,7.93
2024-02-26T18:56:12.603Z,8.40
2024-02-26T18:58:39.792Z,8.77
2024-02-26T19:01:07.217Z,8.97
2024-02-26T19:03:34.627Z,8.77
2024-02-26T19:06:04.534Z,8.90
2024-02-26T19:08:31.778Z,8.70
2024-02-26T19:11:00.491Z,9.43
2024-02-26T19:13:28.020Z,9.20
2024-02-26T19:15:55.215Z,9.37
2024-02-26T19:18:22.640Z,10.00
2024-02-26T19:20:50.100Z,10.73
2024-02-26T19:23:17.359Z,9.63
2024-02-26T19:25:44.764Z,10.03
2024-02-26T19:28:14.115Z,10.77
2024-02-26T19:30:41.423Z,11.40
2024-02-26T19:33:12.488Z,10.70
2024-02-26T19:35:40.728Z,10.43
2024-02-26T19:38:09.296Z,11.17
2024-02-26T19:40:36.880Z,11.03
2024-02-26T19:43:05.808Z,11.50
2024-02-26T19:45:33.482Z,10.53
2024-02-26T19:48:00.877Z,11.17
2024-02-26T19:50:28.334Z,10.90
2024-02-26T19:53:00.051Z,11.17
2024-02-26T19:55:29.099Z,12.43
2024-02-26T19:57:59.748Z,12.03
2024-02-26T20:00:28.156Z,12.63
2024-02-26T20:02:55.600Z,11.87
2024-02-26T20:05:23.836Z,12.10
2024-02-26T20:07:53.013Z,12.40
2024-02-26T20:10:20.826Z,12.87
2024-02-26T20:12:48.088Z,12.80
2024-02-26T20:15:15.481Z,12.17
2024-02-26T20:17:43.650Z,12.87
2024-02-26T20:20:11.731Z,12.63
2024-02-26T20:22:40.527Z,12.67
2024-02-26T20:25:08.671Z,12.80
2024-02-26T20:27:36.854Z,13.13
2024-02-26T20:30:04.723Z,12.77
2024-02-26T20:32:38.097Z,13.70
2024-02-26T20:35:07.988Z,14.10
2024-02-26T20:37:37.227Z,14.57
2024-02-26T20:40:07.410Z,14.17
2024-02-26T20:42:34.744Z,13.73
2024-02-26T20:45:02.139Z,14.50
2024-02-26T20:47:29.420Z,14.90
2024-02-26T20:49:56.884Z,15.33
2024-02-26T20:52:24.064Z,15.07
2024-02-26T20:54:51.352Z,15.20
2024-02-26T20:57:18.572Z,15.37
2024-02-26T20:59:45.742Z,16.03
2024-02-26T21:02:14.785Z,15.67
2024-02-26T21:04:45.989Z,15.07
2024-02-26T21:07:13.353Z,15.80
2024-02-26T21:09:42.832Z,15.77
2024-02-26T21:12:10.552Z,15.83
2024-02-26T21:14:37.786Z,15.30
2024-02-26T21:17:05.340Z,15.07
2024-02-26T21:19:32.641Z,15.47
2024-02-26T21:21:59.928Z,14.50
2024-02-26T21:24:27.257Z,15.70
2024-02-26T21:26:54.627Z,16.13
2024-02-26T21:29:21.729Z,16.07
2024-02-26T21:31:52.875Z,15.97
2024-02-26T21:34:20.292Z,16.47
2024-02-26T21:36:47.862Z,16.43
2024-02-26T21:39:15.074Z,15.73
2024-02-26T21:41:42.388Z,16.57
2024-02-26T21:44:09.671Z,16.20
2024-02-26T21:46:44.839Z,15.93
2024-02-26T21:49:12.246Z,15.70
2024-02-26T21:51:47.045Z,16.00
2024-02-26T21:54:14.798Z,15.13
2024-02-26T21:56:42.552Z,15.97
2024-02-26T21:59:10.373Z,15.03
2024-02-26T22:01:37.776Z,16.30
2024-02-26T22:04:05.256Z,15.93
2024-02-26T22:06:33.088Z,15.20
2024-02-26T22:09:00.369Z,15.23
2024-02-26T22:11:27.771Z,15.90
2024-02-26T22:13:55.117Z,16.30
2024-02-26T22:16:22.785Z,15.67
2024-02-26T22:18:50.094Z,15.37
2024-02-26T22:21:17.600Z,15.90
2024-02-26T22:23:45.173Z,16.87
2024-02-26T22:26:12.362Z,15.60
2024-02-26T22:28:39.533Z,15.93
2024-02-26T22:31:06.802Z,16.07
2024-02-26T22:33:34.112Z,16.17
2024-02-26T22:36:01.418Z,15.90
2024-02-26T22:38:28.564Z,15.03
2024-02-26T22:40:55.742Z,15.23
2024-02-26T22:43:23.575Z,15.90
2024-02-26T22:45:51.124Z,15.23
2024-02-26T22:48:21.111Z,15.60
2024-02-26T22:50:48.575Z,14.67
2024-02-26T22:53:15.843Z,15.27
2024-02-26T22:55:46.372Z,15.73
2024-02-26T22:58:16.323Z,15.60
2024-02-26T23:00:45.347Z,15.83
2024-02-26T23:03:16.899Z,15.40
2024-02-26T23:05:44.462Z,15.70
2024-02-26T23:08:15.142Z,15.20
2024-02-26T23:10:44.161Z,16.03
2024-02-26T23:13:11.447Z,15.70
2024-02-26T23:15:38.793Z,15.90
2024-02-26T23:18:06.456Z,15.33
2024-02-26T23:20:34.727Z,16.37
2024-02-26T23:23:04.797Z,14.00
2024-02-26T23:25:32.148Z,14.93
2024-02-26T23:27:59.233Z,15.27
2024-02-26T23:30:26.821Z,15.87
2024-02-26T23:32:54.188Z,15.83
2024-02-26T23:35:21.710Z,15.33
2024-02-26T23:37:48.932Z,14.70
2024-02-26T23:40:16.834Z,15.77
2024-02-26T23:42:45.090Z,15.17
2024-02-26T23:45:12.738Z,15.57
2024-02-26T23:47:40.302Z,15.10
2024-02-26T23:50:08.843Z,15.53
2024-02-26T23:52:36.100Z,15.03
2024-02-26T23:55:03.331Z,14.73
2024-02-26T23:57:30.547Z,15.07
2024-02-26T23:59:58.181Z,14.30
